createdAt,value
2023-01-19T00:01:41.811Z,80.09
2023-01-19T00:04:09.813Z,79.99
2023-01-19T00:06:37.614Z,80.06
2023-01-19T00:09:05.756Z,79.88
2023-01-19T00:11:33.866Z,80.06
2023-01-19T00:14:01.946Z,79.89
2023-01-19T00:16:29.863Z,79.80
2023-01-19T00:18:57.929Z,79.89
2023-01-19T00:21:25.991Z,79.88
2023-01-19T00:23:53.927Z,80.07
2023-01-19T00:26:22.427Z,79.75
2023-01-19T00:28:50.618Z,79.73
2023-01-19T00:31:20.947Z,79.78
2023-01-19T00:33:50.134Z,79.75
2023-01-19T00:36:18.175Z,79.76
2023-01-19T00:38:46.556Z,79.82
2023-01-19T00:41:14.777Z,79.69
2023-01-19T00:43:42.625Z,79.67
2023-01-19T00:46:10.634Z,79.40
2023-01-19T00:48:38.618Z,79.43
2023-01-19T00:51:06.751Z,79.27
2023-01-19T00:53:34.804Z,78.97
2023-01-19T00:56:02.667Z,78.94
2023-01-19T00:58:30.635Z,78.79
2023-01-19T01:02:18.808Z,78.86
2023-01-19T01:04:47.073Z,78.94
2023-01-19T01:07:15.248Z,79.04
2023-01-19T01:09:42.985Z,78.94
2023-01-19T01:12:10.743Z,79.03
2023-01-19T01:14:38.559Z,78.80
2023-01-19T01:17:11.337Z,78.00
2023-01-19T01:19:42.885Z,78.02
2023-01-19T01:22:31.750Z,77.72
2023-01-19T01:25:03.295Z,77.87
2023-01-19T01:27:30.982Z,78.04
2023-01-19T01:29:59.117Z,78.02
2023-01-19T01:32:27.045Z,78.04
2023-01-19T01:34:54.703Z,78.15
2023-01-19T01:37:22.416Z,77.80
2023-01-19T01:39:50.328Z,77.39
2023-01-19T01:42:20.673Z,77.30
2023-01-19T01:44:52.249Z,76.96
2023-01-19T01:47:32.846Z,77.04
2023-01-19T01:50:07.571Z,77.60
2023-01-19T01:52:39.503Z,77.55
2023-01-19T01:55:08.784Z,77.60
2023-01-19T01:57:42.173Z,77.76
2023-01-19T02:00:12.866Z,77.63
2023-01-19T02:02:54.998Z,77.55
2023-01-19T02:05:33.664Z,77.80
2023-01-19T02:08:24.779Z,77.75
2023-01-19T02:11:12.788Z,77.89
2023-01-19T02:13:47.019Z,78.14
2023-01-19T02:16:17.128Z,77.94
2023-01-19T02:18:45.610Z,78.09
2023-01-19T02:21:28.056Z,77.89
2023-01-19T02:23:58.040Z,77.82
2023-01-19T02:26:34.127Z,78.13
2023-01-19T02:29:03.783Z,77.89
2023-01-19T02:31:34.069Z,77.56
2023-01-19T02:34:02.808Z,77.69
2023-01-19T02:36:48.869Z,77.63
2023-01-19T02:39:20.231Z,77.72
2023-01-19T02:41:55.460Z,77.59
2023-01-19T02:44:24.377Z,77.72
2023-01-19T02:46:55.744Z,77.61
2023-01-19T02:49:23.718Z,77.49
2023-01-19T02:51:51.534Z,77.05
2023-01-19T02:54:57.947Z,77.29
2023-01-19T02:57:44.421Z,77.08
2023-01-19T03:00:37.121Z,77.33
2023-01-19T03:03:21.678Z,77.19
2023-01-19T03:06:08.661Z,77.17
2023-01-19T03:09:08.593Z,77.31
2023-01-19T03:11:42.511Z,77.27
2023-01-19T03:14:20.368Z,77.33
2023-01-19T03:16:55.634Z,77.41
2023-01-19T03:19:27.703Z,77.53
2023-01-19T03:21:59.336Z,77.58
2023-01-19T03:24:31.818Z,77.68
2023-01-19T03:27:14.966Z,77.59
2023-01-19T03:29:50.975Z,78.08
2023-01-19T03:32:23.251Z,78.29
2023-01-19T03:34:52.199Z,78.41
2023-01-19T03:37:21.634Z,78.26
2023-01-19T03:39:49.812Z,78.29
2023-01-19T03:42:18.244Z,78.50
2023-01-19T03:44:52.908Z,78.58
2023-01-19T03:47:22.168Z,78.59
2023-01-19T03:49:53.190Z,78.84
2023-01-19T03:52:34.976Z,79.16
2023-01-19T03:55:04.812Z,79.13
2023-01-19T03:57:32.734Z,79.45
2023-01-19T04:00:00.489Z,79.40
2023-01-19T04:02:28.398Z,79.75
2023-01-19T04:04:56.384Z,79.97
2023-01-19T04:07:24.085Z,79.90
2023-01-19T04:09:51.768Z,80.12
2023-01-19T04:12:19.615Z,80.71
2023-01-19T04:14:47.565Z,80.54
2023-01-19T04:17:18.796Z,80.87
2023-01-19T04:19:46.520Z,80.93
2023-01-19T04:22:14.355Z,80.91
2023-01-19T04:24:42.088Z,81.49
2023-01-19T04:27:10.948Z,81.55
2023-01-19T04:29:38.959Z,81.72
2023-01-19T04:32:06.853Z,81.63
2023-01-19T04:34:34.557Z,82.13
2023-01-19T04:37:02.401Z,82.88
2023-01-19T04:39:30.137Z,82.72
2023-01-19T04:41:57.910Z,83.11
2023-01-19T04:44:25.866Z,82.77
2023-01-19T04:46:54.069Z,83.40
2023-01-19T04:49:21.759Z,83.23
2023-01-19T04:51:49.568Z,83.53
2023-01-19T04:54:17.419Z,83.60
2023-01-19T04:56:46.761Z,83.71
2023-01-19T04:59:14.798Z,83.38
2023-01-19T05:01:43.566Z,83.62
2023-01-19T05:04:11.292Z,84.04
2023-01-19T05:06:39.246Z,84.00
2023-01-19T05:09:13.135Z,83.84
2023-01-19T05:11:41.577Z,83.62
2023-01-19T05:14:09.871Z,83.99
2023-01-19T05:16:37.883Z,83.76
2023-01-19T05:19:05.831Z,83.59
2023-01-19T05:21:33.955Z,83.44
2023-01-19T05:24:01.744Z,83.33
2023-01-19T05:26:29.641Z,83.55
2023-01-19T05:28:57.707Z,83.33
2023-01-19T05:31:25.653Z,83.35
2023-01-19T05:33:53.685Z,83.39
2023-01-19T05:36:21.534Z,83.46
2023-01-19T05:38:49.259Z,83.31
2023-01-19T05:41:17.908Z,83.27
2023-01-19T05:43:45.720Z,83.37
2023-01-19T05:46:13.416Z,83.44
2023-01-19T05:48:41.433Z,83.33
2023-01-19T05:51:09.323Z,83.11
2023-01-19T05:53:37.035Z,83.13
2023-01-19T05:56:11.364Z,83.49
2023-01-19T05:58:39.706Z,83.28
2023-01-19T06:01:10.068Z,83.37
2023-01-19T06:03:39.597Z,83.17
2023-01-19T06:06:07.692Z,83.45
2023-01-19T06:08:35.540Z,83.35
2023-01-19T06:11:06.094Z,83.36
2023-01-19T06:13:34.362Z,83.38
2023-01-19T06:16:03.524Z,83.21
2023-01-19T06:18:31.495Z,82.86
2023-01-19T06:20:59.283Z,83.05
2023-01-19T06:23:31.503Z,83.07
2023-01-19T06:25:59.426Z,82.88
2023-01-19T06:28:27.686Z,82.99
2023-01-19T06:30:56.852Z,82.99
2023-01-19T06:33:25.922Z,83.16
2023-01-19T06:35:54.013Z,82.97
2023-01-19T06:38:21.822Z,82.79
2023-01-19T06:40:54.812Z,82.71
2023-01-19T06:43:22.783Z,82.43
2023-01-19T06:45:50.679Z,82.43
2023-01-19T06:48:19.443Z,82.27
2023-01-19T06:50:48.561Z,81.95
2023-01-19T06:53:17.688Z,81.92
2023-01-19T06:55:45.757Z,82.03
2023-01-19T06:58:14.135Z,81.69
2023-01-19T07:00:42.989Z,81.34
2023-01-19T07:03:19.534Z,81.26
2023-01-19T07:05:50.957Z,81.25
2023-01-19T07:08:18.803Z,80.76
2023-01-19T07:11:26.724Z,81.07
2023-01-19T07:13:38.697Z,80.78
2023-01-19T07:16:08.600Z,80.67
2023-01-19T07:18:37.152Z,80.71
2023-01-19T07:21:05.345Z,80.20
2023-01-19T07:23:34.212Z,80.21
2023-01-19T07:26:02.717Z,79.79
2023-01-19T07:28:31.751Z,79.26
2023-01-19T07:30:59.994Z,78.72
2023-01-19T07:33:28.756Z,78.31
2023-01-19T07:35:56.705Z,78.26
2023-01-19T07:38:24.877Z,78.43
2023-01-19T07:41:00.128Z,78.40
2023-01-19T07:43:28.009Z,78.34
2023-01-19T07:45:59.959Z,78.32
2023-01-19T07:48:29.969Z,77.75
2023-01-19T07:51:05.820Z,76.61
2023-01-19T07:53:34.055Z,76.84
2023-01-19T07:56:04.434Z,76.67
2023-01-19T07:58:32.128Z,76.68
2023-01-19T08:00:59.948Z,76.57
2023-01-19T08:03:27.771Z,76.41
2023-01-19T08:05:57.100Z,76.53
2023-01-19T08:08:25.033Z,76.52
2023-01-19T08:10:53.051Z,76.39
2023-01-19T08:13:20.907Z,76.83
2023-01-19T08:15:51.277Z,76.05
2023-01-19T08:18:20.278Z,76.34
2023-01-19T08:20:48.056Z,76.54
2023-01-19T08:23:16.085Z,76.26
2023-01-19T08:25:45.166Z,75.94
2023-01-19T08:28:15.831Z,76.34
2023-01-19T08:30:45.237Z,75.95
2023-01-19T08:33:13.948Z,76.19
2023-01-19T08:35:43.727Z,76.29
2023-01-19T08:38:11.447Z,76.43
2023-01-19T08:40:40.544Z,76.33
2023-01-19T08:43:19.592Z,75.95
2023-01-19T08:45:51.589Z,76.24
2023-01-19T08:48:24.361Z,76.38
2023-01-19T08:50:53.686Z,76.33
2023-01-19T08:53:23.662Z,76.49
2023-01-19T08:55:57.637Z,76.37
2023-01-19T08:58:25.737Z,75.53
2023-01-19T09:00:54.054Z,75.81
2023-01-19T09:03:23.195Z,75.40
2023-01-19T09:05:51.129Z,75.55
2023-01-19T09:08:19.636Z,75.66
2023-01-19T09:10:50.856Z,75.56
2023-01-19T09:13:20.063Z,75.22
2023-01-19T09:15:48.181Z,74.87
2023-01-19T09:18:18.601Z,75.02
2023-01-19T09:20:48.923Z,74.43
2023-01-19T09:23:20.600Z,73.93
2023-01-19T09:25:57.288Z,74.12
2023-01-19T09:28:25.634Z,73.85
2023-01-19T09:30:53.635Z,74.03
2023-01-19T09:33:21.946Z,72.88
2023-01-19T09:35:50.722Z,72.94
2023-01-19T09:38:19.741Z,72.75
2023-01-19T09:40:52.088Z,72.69
2023-01-19T09:43:35.288Z,72.12
2023-01-19T09:46:10.907Z,71.56
2023-01-19T09:48:54.218Z,72.11
2023-01-19T09:51:24.096Z,71.80
2023-01-19T09:53:58.084Z,71.68
2023-01-19T09:56:28.398Z,71.42
2023-01-19T09:58:56.699Z,71.34
2023-01-19T10:01:35.282Z,71.96
2023-01-19T10:04:28.733Z,70.93
2023-01-19T10:07:39.408Z,70.65
2023-01-19T10:10:11.680Z,70.78
2023-01-19T10:13:21.995Z,70.67
2023-01-19T10:16:20.555Z,69.71
2023-01-19T10:18:51.859Z,70.23
2023-01-19T10:21:27.191Z,69.47
2023-01-19T10:24:06.843Z,69.96
2023-01-19T10:26:40.688Z,69.77
2023-01-19T10:29:22.049Z,68.73
2023-01-19T10:31:52.801Z,68.93
2023-01-19T10:34:23.352Z,68.52
2023-01-19T10:37:02.901Z,68.79
2023-01-19T10:39:30.737Z,68.48
2023-01-19T10:42:05.034Z,68.18
2023-01-19T10:44:37.653Z,68.41
2023-01-19T10:47:13.896Z,68.57
2023-01-19T10:49:43.185Z,68.21
2023-01-19T10:52:30.177Z,67.78
2023-01-19T10:55:00.181Z,67.62
2023-01-19T10:57:36.807Z,67.23
2023-01-19T11:00:06.511Z,66.89
2023-01-19T11:02:35.793Z,66.73
2023-01-19T11:05:30.945Z,66.70
2023-01-19T11:07:59.609Z,66.35
2023-01-19T11:10:32.207Z,66.29
2023-01-19T11:13:13.428Z,65.99
2023-01-19T11:15:46.540Z,66.01
2023-01-19T11:18:33.328Z,65.71
2023-01-19T11:21:06.442Z,65.90
2023-01-19T11:23:42.156Z,66.11
2023-01-19T11:26:18.222Z,66.07
2023-01-19T11:28:49.004Z,65.76
2023-01-19T11:31:27.994Z,65.26
2023-01-19T11:33:59.285Z,64.76
2023-01-19T11:36:32.312Z,63.39
2023-01-19T11:39:15.890Z,63.57
2023-01-19T11:41:44.941Z,62.74
2023-01-19T11:44:24.311Z,63.27
2023-01-19T11:46:58.743Z,63.04
2023-01-19T11:49:45.469Z,62.54
2023-01-19T11:52:26.122Z,61.87
2023-01-19T11:55:12.757Z,61.60
2023-01-19T11:57:46.934Z,60.51
2023-01-19T12:00:29.150Z,60.73
2023-01-19T12:03:13.064Z,61.23
2023-01-19T12:05:48.094Z,60.98
2023-01-19T12:08:22.703Z,60.74
2023-01-19T12:10:53.203Z,59.76
2023-01-19T12:13:23.951Z,60.77
2023-01-19T12:16:03.959Z,61.14
2023-01-19T12:18:41.016Z,60.45
2023-01-19T12:21:09.140Z,59.92
2023-01-19T12:24:16.384Z,60.29
2023-01-19T12:26:56.287Z,59.54
2023-01-19T12:29:28.084Z,59.46
2023-01-19T12:32:14.376Z,59.33
2023-01-19T12:34:44.191Z,59.14
2023-01-19T12:37:27.352Z,59.48
2023-01-19T12:39:58.087Z,58.11
2023-01-19T12:42:27.048Z,57.27
2023-01-19T12:45:28.377Z,57.23
2023-01-19T12:47:56.395Z,56.88
2023-01-19T12:50:26.011Z,56.06
2023-01-19T12:52:58.499Z,55.89
2023-01-19T12:55:34.056Z,56.40
2023-01-19T12:58:05.940Z,55.71
2023-01-19T13:00:39.737Z,55.75
2023-01-19T13:03:20.134Z,55.88
2023-01-19T13:05:54.771Z,56.17
2023-01-19T13:08:30.055Z,56.45
2023-01-19T13:11:10.462Z,55.99
2023-01-19T13:13:40.123Z,56.48
2023-01-19T13:16:20.675Z,56.03
2023-01-19T13:19:17.648Z,55.75
2023-01-19T13:21:48.492Z,55.04
2023-01-19T13:24:19.943Z,54.79
2023-01-19T13:26:51.414Z,55.05
2023-01-19T13:29:34.273Z,55.38
2023-01-19T13:32:06.329Z,53.84
2023-01-19T13:34:45.655Z,53.78
2023-01-19T13:37:23.564Z,53.13
2023-01-19T13:39:53.852Z,53.92
2023-01-19T13:42:41.791Z,54.28
2023-01-19T13:45:27.370Z,53.72
2023-01-19T13:47:58.340Z,53.42
2023-01-19T13:50:33.187Z,53.63
2023-01-19T13:53:01.543Z,53.45
2023-01-19T13:55:30.928Z,52.60
2023-01-19T13:57:59.848Z,52.17
2023-01-19T14:00:30.978Z,52.59
2023-01-19T14:03:18.422Z,52.66
2023-01-19T14:05:51.483Z,52.62
2023-01-19T14:08:20.467Z,51.53
2023-01-19T14:10:54.580Z,50.76
2023-01-19T14:13:29.878Z,51.02
2023-01-19T14:16:01.387Z,51.06
2023-01-19T14:18:32.152Z,50.91
2023-01-19T14:21:07.776Z,50.77
2023-01-19T14:23:38.371Z,50.93
2023-01-19T14:26:27.299Z,50.42
2023-01-19T14:28:55.612Z,49.94
2023-01-19T14:31:27.630Z,50.04
2023-01-19T14:33:58.428Z,50.34
2023-01-19T14:36:27.775Z,50.50
2023-01-19T14:38:59.452Z,50.23
2023-01-19T14:41:35.020Z,50.72
2023-01-19T14:44:07.385Z,50.95
2023-01-19T14:46:35.516Z,51.63
2023-01-19T14:49:06.591Z,51.93
2023-01-19T14:51:34.391Z,52.16
2023-01-19T14:54:03.134Z,52.13
2023-01-19T14:56:34.107Z,52.54
2023-01-19T14:59:03.087Z,52.60
2023-01-19T15:01:32.505Z,52.94
2023-01-19T15:04:00.273Z,53.47
2023-01-19T15:06:28.684Z,53.68
2023-01-19T15:08:56.596Z,53.93
2023-01-19T15:11:31.695Z,54.31
2023-01-19T15:14:00.877Z,54.84
2023-01-19T15:16:32.020Z,54.75
2023-01-19T15:19:00.687Z,55.25
2023-01-19T15:21:28.586Z,55.67
2023-01-19T15:23:58.171Z,55.79
2023-01-19T15:26:27.319Z,56.04
2023-01-19T15:28:57.340Z,56.12
2023-01-19T15:31:26.303Z,56.44
2023-01-19T15:33:55.216Z,56.68
2023-01-19T15:36:24.460Z,56.59
2023-01-19T15:38:52.249Z,56.87
2023-01-19T15:41:26.318Z,56.85
2023-01-19T15:43:54.157Z,57.23
2023-01-19T15:46:23.326Z,57.61
2023-01-19T15:48:51.842Z,57.87
2023-01-19T15:51:22.432Z,57.91
2023-01-19T15:53:50.401Z,58.17
2023-01-19T15:56:21.880Z,58.45
2023-01-19T15:58:49.572Z,58.59
2023-01-19T16:01:20.055Z,58.70
2023-01-19T16:03:48.945Z,58.88
2023-01-19T16:06:17.839Z,58.69
2023-01-19T16:08:45.752Z,58.87
2023-01-19T16:11:15.538Z,58.89
2023-01-19T16:13:46.718Z,59.27
2023-01-19T16:16:17.602Z,59.63
2023-01-19T16:18:45.505Z,59.76
2023-01-19T16:21:13.367Z,60.01
2023-01-19T16:23:41.198Z,60.62
2023-01-19T16:26:24.380Z,60.70
2023-01-19T16:28:56.702Z,60.97
2023-01-19T16:31:25.283Z,60.94
2023-01-19T16:33:53.067Z,61.20
2023-01-19T16:36:26.819Z,61.44
2023-01-19T16:38:54.982Z,61.61
2023-01-19T16:41:22.692Z,61.90
2023-01-19T16:43:52.305Z,61.79
2023-01-19T16:46:33.861Z,62.21
2023-01-19T16:49:04.236Z,62.57
2023-01-19T16:51:33.000Z,62.60
2023-01-19T16:54:00.668Z,62.37
2023-01-19T16:56:28.883Z,62.91
2023-01-19T16:58:59.353Z,62.66
2023-01-19T17:01:30.028Z,63.09
2023-01-19T17:03:58.179Z,63.18
2023-01-19T17:06:25.843Z,62.96
2023-01-19T17:08:53.807Z,63.02
2023-01-19T17:11:24.459Z,63.22
2023-01-19T17:14:14.108Z,63.04
2023-01-19T17:16:43.130Z,63.39
2023-01-19T17:19:15.536Z,63.27
2023-01-19T17:21:46.106Z,63.36
2023-01-19T17:24:15.342Z,63.30
2023-01-19T17:26:45.949Z,63.53
2023-01-19T17:29:14.606Z,63.68
2023-01-19T17:31:42.889Z,63.57
2023-01-19T17:34:10.984Z,63.65
2023-01-19T17:36:40.964Z,63.92
2023-01-19T17:39:14.352Z,63.98
2023-01-19T17:41:42.326Z,63.93
2023-01-19T17:44:10.743Z,64.20
2023-01-19T17:46:39.107Z,63.99
2023-01-19T17:49:07.928Z,64.26
2023-01-19T17:51:35.861Z,64.76
2023-01-19T17:54:04.643Z,64.51
2023-01-19T17:56:36.781Z,64.68
2023-01-19T17:59:08.027Z,64.61
2023-01-19T18:01:40.006Z,64.83
2023-01-19T18:04:08.715Z,65.02
2023-01-19T18:06:37.693Z,64.76
2023-01-19T18:09:07.379Z,64.81
2023-01-19T18:11:35.491Z,65.07
2023-01-19T18:14:03.483Z,65.04
2023-01-19T18:16:32.521Z,65.27
2023-01-19T18:19:00.861Z,65.03
2023-01-19T18:21:30.284Z,65.41
2023-01-19T18:24:01.256Z,65.42
2023-01-19T18:26:29.764Z,65.34
2023-01-19T18:28:57.934Z,65.45
2023-01-19T18:31:27.760Z,65.50
2023-01-19T18:33:56.094Z,65.56
2023-01-19T18:36:23.871Z,65.78
2023-01-19T18:38:52.116Z,65.86
2023-01-19T18:41:21.369Z,65.90
2023-01-19T18:43:49.772Z,66.07
2023-01-19T18:46:19.125Z,66.22
2023-01-19T18:48:47.015Z,66.38
2023-01-19T18:51:16.278Z,66.30
2023-01-19T18:53:45.101Z,66.32
2023-01-19T18:56:14.382Z,66.63
2023-01-19T18:58:42.754Z,66.67
2023-01-19T19:01:29.691Z,66.60
2023-01-19T19:03:58.722Z,67.04
2023-01-19T19:06:27.536Z,67.03
2023-01-19T19:08:57.789Z,67.30
2023-01-19T19:11:26.776Z,67.41
2023-01-19T19:13:58.902Z,67.40
2023-01-19T19:16:26.862Z,67.42
2023-01-19T19:18:55.104Z,67.73
2023-01-19T19:21:25.380Z,67.83
2023-01-19T19:23:55.822Z,68.43
2023-01-19T19:26:25.259Z,68.55
2023-01-19T19:28:53.324Z,69.06
2023-01-19T19:31:23.540Z,69.02
2023-01-19T19:33:51.777Z,69.03
2023-01-19T19:36:21.913Z,68.94
2023-01-19T19:38:50.498Z,69.06
2023-01-19T19:41:21.430Z,69.34
2023-01-19T19:43:49.992Z,69.22
2023-01-19T19:46:20.062Z,69.45
2023-01-19T19:48:48.922Z,69.64
2023-01-19T19:51:22.723Z,69.87
2023-01-19T19:53:51.864Z,70.04
2023-01-19T19:56:21.769Z,69.73
2023-01-19T19:58:51.112Z,69.91
2023-01-19T20:01:21.250Z,69.96
2023-01-19T20:03:49.399Z,70.12
2023-01-19T20:06:21.749Z,70.06
2023-01-19T20:08:51.627Z,70.00
2023-01-19T20:11:23.131Z,70.24
2023-01-19T20:13:50.962Z,70.23
2023-01-19T20:16:21.329Z,70.18
2023-01-19T20:18:54.316Z,70.27
2023-01-19T20:21:24.904Z,70.33
2023-01-19T20:23:54.313Z,70.28
2023-01-19T20:26:26.554Z,70.38
2023-01-19T20:28:57.219Z,70.35
2023-01-19T20:31:27.997Z,70.21
2023-01-19T20:33:59.745Z,70.13
2023-01-19T20:36:29.023Z,70.13
2023-01-19T20:38:57.504Z,70.09
2023-01-19T20:41:27.124Z,69.96
2023-01-19T20:43:55.112Z,69.78
2023-01-19T20:46:23.230Z,69.75
2023-01-19T20:48:53.584Z,69.63
2023-01-19T20:51:22.457Z,69.58
2023-01-19T20:53:50.447Z,69.16
2023-01-19T20:56:18.500Z,69.12
2023-01-19T20:58:46.881Z,69.33
2023-01-19T21:01:23.075Z,69.30
2023-01-19T21:03:52.270Z,69.44
2023-01-19T21:06:21.309Z,69.42
2023-01-19T21:08:52.179Z,69.34
2023-01-19T21:11:20.966Z,69.35
2023-01-19T21:13:55.520Z,69.49
2023-01-19T21:16:25.429Z,69.44
2023-01-19T21:18:54.114Z,69.12
2023-01-19T21:21:30.426Z,69.08
2023-01-19T21:24:00.783Z,68.99
2023-01-19T21:26:30.234Z,68.96
2023-01-19T21:28:58.736Z,68.78
2023-01-19T21:31:28.269Z,68.96
2023-01-19T21:33:57.668Z,68.78
2023-01-19T21:36:26.031Z,69.03
2023-01-19T21:39:00.192Z,68.94
2023-01-19T21:41:29.907Z,68.87
2023-01-19T21:43:59.973Z,68.92
2023-01-19T21:46:33.182Z,69.08
2023-01-19T21:49:03.692Z,69.08
2023-01-19T21:51:36.145Z,68.97
2023-01-19T21:54:05.954Z,69.07
2023-01-19T21:56:34.749Z,69.29
2023-01-19T21:59:03.495Z,69.43
2023-01-19T22:01:32.321Z,69.50
2023-01-19T22:04:00.288Z,69.42
2023-01-19T22:06:28.789Z,69.67
2023-01-19T22:08:57.981Z,69.50
2023-01-19T22:11:26.341Z,69.57
2023-01-19T22:13:54.991Z,69.50
2023-01-19T22:16:23.425Z,69.39
2023-01-19T22:18:59.910Z,69.34
2023-01-19T22:21:31.576Z,69.55
2023-01-19T22:24:03.901Z,69.46
2023-01-19T22:26:34.145Z,69.61
2023-01-19T22:29:03.411Z,69.67
2023-01-19T22:31:32.183Z,70.00
2023-01-19T22:34:00.256Z,69.69
2023-01-19T22:36:30.538Z,69.51
2023-01-19T22:39:00.628Z,69.64
2023-01-19T22:41:34.604Z,69.80
2023-01-19T22:44:05.338Z,70.07
2023-01-19T22:46:35.505Z,69.90
2023-01-19T22:49:05.046Z,70.11
2023-01-19T22:51:33.705Z,69.99
2023-01-19T22:54:01.569Z,70.09
2023-01-19T22:56:31.381Z,70.26
2023-01-19T22:58:59.644Z,70.27
2023-01-19T23:01:30.565Z,70.47
2023-01-19T23:03:59.002Z,70.06
2023-01-19T23:06:29.688Z,69.88
2023-01-19T23:09:00.254Z,69.93
2023-01-19T23:11:34.262Z,69.84
2023-01-19T23:14:07.023Z,69.89
2023-01-19T23:16:35.256Z,70.17
2023-01-19T23:19:03.671Z,69.88
2023-01-19T23:21:32.781Z,70.02
2023-01-19T23:24:03.051Z,69.88
2023-01-19T23:26:31.583Z,70.09
2023-01-19T23:29:01.647Z,70.13
2023-01-19T23:31:32.366Z,70.09
2023-01-19T23:34:02.436Z,70.04
2023-01-19T23:36:32.919Z,70.18
2023-01-19T23:39:07.072Z,70.36
2023-01-19T23:41:35.293Z,70.28
2023-01-19T23:44:03.193Z,70.33
2023-01-19T23:46:31.330Z,70.11
2023-01-19T23:48:59.469Z,69.98
2023-01-19T23:51:29.898Z,69.93
2023-01-19T23:53:58.987Z,69.69
2023-01-19T23:56:32.987Z,69.89
2023-01-19T23:59:09.087Z,69.83
